sensor_id;sensor_type;location;lat;lon;timestamp;P1;durP1;ratioP1;P2;durP2;ratioP2
19183;SDS011;9724;51.194;6.856;2024-03-07T00:01:09;68.13;;;28.93;;
19183;SDS011;9724;51.194;6.856;2024-03-07T00:03:36;78.77;;;32.57;;
19183;SDS011;9724;51.194;6.856;2024-03-07T00:06:03;76.83;;;31.47;;
19183;SDS011;9724;51.194;6.856;2024-03-07T00:08:30;67.70;;;29.97;;
19183;SDS011;9724;51.194;6.856;2024-03-07T00:10:57;73.27;;;30.40;;
19183;SDS011;9724;51.194;6.856;2024-03-07T00:13:23;75.63;;;31.17;;
19183;SDS011;9724;51.194;6.856;2024-03-07T00:15:49;66.97;;;28.57;;
19183;SDS011;9724;51.194;6.856;2024-03-07T00:18:16;67.20;;;29.87;;
19183;SDS011;9724;51.194;6.856;2024-03-07T00:20:42;72.70;;;29.43;;
19183;SDS011;9724;51.194;6.856;2024-03-07T00:23:09;72.10;;;30.07;;
19183;SDS011;9724;51.194;6.856;2024-03-07T00:25:36;70.57;;;29.10;;
19183;SDS011;9724;51.194;6.856;2024-03-07T00:28:03;80.37;;;32.17;;
19183;SDS011;9724;51.194;6.856;2024-03-07T00:30:30;76.70;;;31.23;;
19183;SDS011;9724;51.194;6.856;2024-03-07T00:32:57;63.17;;;28.83;;
19183;SDS011;9724;51.194;6.856;2024-03-07T00:35:23;67.27;;;29.50;;
19183;SDS011;9724;51.194;6.856;2024-03-07T00:37:50;70.40;;;28.20;;
19183;SDS011;9724;51.194;6.856;2024-03-07T00:40:16;71.90;;;29.73;;
19183;SDS011;9724;51.194;6.856;2024-03-07T00:42:43;63.03;;;27.67;;
19183;SDS011;9724;51.194;6.856;2024-03-07T00:45:10;67.43;;;29.37;;
19183;SDS011;9724;51.194;6.856;2024-03-07T00:47:37;65.70;;;28.57;;
19183;SDS011;9724;51.194;6.856;2024-03-07T00:50:04;67.37;;;28.93;;
19183;SDS011;9724;51.194;6.856;2024-03-07T00:52:34;71.73;;;29.57;;
19183;SDS011;9724;51.194;6.856;2024-03-07T00:55:00;64.00;;;27.97;;
19183;SDS011;9724;51.194;6.856;2024-03-07T00:57:26;71.97;;;29.23;;
19183;SDS011;9724;51.194;6.856;2024-03-07T00:59:53;67.53;;;29.23;;
19183;SDS011;9724;51.194;6.856;2024-03-07T01:02:20;74.97;;;31.03;;
19183;SDS011;9724;51.194;6.856;2024-03-07T01:04:47;70.73;;;30.50;;
19183;SDS011;9724;51.194;6.856;2024-03-07T01:07:13;69.47;;;30.17;;
19183;SDS011;9724;51.194;6.856;2024-03-07T01:09:40;78.73;;;32.47;;
19183;SDS011;9724;51.194;6.856;2024-03-07T01:12:09;78.43;;;31.37;;
19183;SDS011;9724;51.194;6.856;2024-03-07T01:14:38;74.17;;;30.80;;
19183;SDS011;9724;51.194;6.856;2024-03-07T01:17:05;66.13;;;28.60;;
19183;SDS011;9724;51.194;6.856;2024-03-07T01:19:33;73.03;;;29.73;;
19183;SDS011;9724;51.194;6.856;2024-03-07T01:21:59;69.83;;;28.63;;
19183;SDS011;9724;51.194;6.856;2024-03-07T01:24:26;77.53;;;30.03;;
19183;SDS011;9724;51.194;6.856;2024-03-07T01:26:52;63.83;;;27.87;;
19183;SDS011;9724;51.194;6.856;2024-03-07T01:29:19;66.93;;;29.57;;
19183;SDS011;9724;51.194;6.856;2024-03-07T01:31:46;70.97;;;28.80;;
19183;SDS011;9724;51.194;6.856;2024-03-07T01:34:13;72.13;;;29.17;;
19183;SDS011;9724;51.194;6.856;2024-03-07T01:36:39;74.17;;;29.37;;
19183;SDS011;9724;51.194;6.856;2024-03-07T01:39:07;67.07;;;27.73;;
19183;SDS011;9724;51.194;6.856;2024-03-07T01:41:36;64.20;;;27.40;;
19183;SDS011;9724;51.194;6.856;2024-03-07T01:44:02;67.97;;;28.70;;
19183;SDS011;9724;51.194;6.856;2024-03-07T01:46:29;66.50;;;28.13;;
19183;SDS011;9724;51.194;6.856;2024-03-07T01:48:56;65.23;;;28.30;;
19183;SDS011;9724;51.194;6.856;2024-03-07T01:51:22;68.20;;;28.50;;
19183;SDS011;9724;51.194;6.856;2024-03-07T01:53:49;70.10;;;28.83;;
19183;SDS011;9724;51.194;6.856;2024-03-07T01:56:16;67.70;;;28.13;;
19183;SDS011;9724;51.194;6.856;2024-03-07T01:58:42;64.90;;;28.77;;
19183;SDS011;9724;51.194;6.856;2024-03-07T02:01:09;68.23;;;29.80;;
19183;SDS011;9724;51.194;6.856;2024-03-07T02:03:35;73.80;;;29.13;;
19183;SDS011;9724;51.194;6.856;2024-03-07T02:06:02;77.80;;;30.53;;
19183;SDS011;9724;51.194;6.856;2024-03-07T02:08:30;80.23;;;31.83;;
19183;SDS011;9724;51.194;6.856;2024-03-07T02:10:57;66.40;;;27.77;;
19183;SDS011;9724;51.194;6.856;2024-03-07T02:13:24;62.63;;;27.13;;
19183;SDS011;9724;51.194;6.856;2024-03-07T02:15:50;64.97;;;26.83;;
19183;SDS011;9724;51.194;6.856;2024-03-07T02:18:16;64.60;;;26.53;;
19183;SDS011;9724;51.194;6.856;2024-03-07T02:20:44;61.37;;;26.80;;
19183;SDS011;9724;51.194;6.856;2024-03-07T02:23:11;61.47;;;25.57;;
19183;SDS011;9724;51.194;6.856;2024-03-07T02:25:37;66.93;;;26.43;;
19183;SDS011;9724;51.194;6.856;2024-03-07T02:28:04;62.63;;;27.33;;
19183;SDS011;9724;51.194;6.856;2024-03-07T02:30:30;64.27;;;26.97;;
19183;SDS011;9724;51.194;6.856;2024-03-07T02:32:57;62.30;;;27.80;;
19183;SDS011;9724;51.194;6.856;2024-03-07T02:35:32;66.10;;;27.50;;
19183;SDS011;9724;51.194;6.856;2024-03-07T02:38:00;57.33;;;24.37;;
19183;SDS011;9724;51.194;6.856;2024-03-07T02:40:27;63.40;;;25.63;;
19183;SDS011;9724;51.194;6.856;2024-03-07T02:42:54;65.50;;;27.03;;
19183;SDS011;9724;51.194;6.856;2024-03-07T02:45:20;64.03;;;27.40;;
19183;SDS011;9724;51.194;6.856;2024-03-07T02:47:46;57.50;;;26.00;;
19183;SDS011;9724;51.194;6.856;2024-03-07T02:50:13;57.60;;;25.37;;
19183;SDS011;9724;51.194;6.856;2024-03-07T02:52:40;58.23;;;24.93;;
19183;SDS011;9724;51.194;6.856;2024-03-07T02:55:07;66.67;;;25.77;;
19183;SDS011;9724;51.194;6.856;2024-03-07T02:57:36;66.03;;;27.30;;
19183;SDS011;9724;51.194;6.856;2024-03-07T03:00:03;64.60;;;27.30;;
19183;SDS011;9724;51.194;6.856;2024-03-07T03:02:39;67.23;;;27.83;;
19183;SDS011;9724;51.194;6.856;2024-03-07T03:05:05;67.60;;;28.20;;
19183;SDS011;9724;51.194;6.856;2024-03-07T03:07:33;67.03;;;28.20;;
19183;SDS011;9724;51.194;6.856;2024-03-07T03:10:00;66.67;;;27.97;;
19183;SDS011;9724;51.194;6.856;2024-03-07T03:12:27;70.20;;;29.27;;
19183;SDS011;9724;51.194;6.856;2024-03-07T03:14:53;66.93;;;29.20;;
19183;SDS011;9724;51.194;6.856;2024-03-07T03:17:19;68.30;;;29.63;;
19183;SDS011;9724;51.194;6.856;2024-03-07T03:19:46;69.13;;;28.27;;
19183;SDS011;9724;51.194;6.856;2024-03-07T03:22:15;60.67;;;27.93;;
19183;SDS011;9724;51.194;6.856;2024-03-07T03:24:41;56.73;;;26.83;;
19183;SDS011;9724;51.194;6.856;2024-03-07T03:27:08;63.37;;;28.30;;
19183;SDS011;9724;51.194;6.856;2024-03-07T03:29:35;59.53;;;27.67;;
19183;SDS011;9724;51.194;6.856;2024-03-07T03:32:04;63.23;;;27.63;;
19183;SDS011;9724;51.194;6.856;2024-03-07T03:34:30;59.00;;;27.93;;
19183;SDS011;9724;51.194;6.856;2024-03-07T03:36:56;57.33;;;27.50;;
19183;SDS011;9724;51.194;6.856;2024-03-07T03:39:23;57.00;;;26.07;;
19183;SDS011;9724;51.194;6.856;2024-03-07T03:41:49;59.03;;;28.33;;
19183;SDS011;9724;51.194;6.856;2024-03-07T03:44:15;64.73;;;27.60;;
19183;SDS011;9724;51.194;6.856;2024-03-07T03:46:43;65.33;;;29.37;;
19183;SDS011;9724;51.194;6.856;2024-03-07T03:49:09;64.23;;;28.10;;
19183;SDS011;9724;51.194;6.856;2024-03-07T03:51:37;68.27;;;29.50;;
19183;SDS011;9724;51.194;6.856;2024-03-07T03:54:03;69.47;;;30.00;;
19183;SDS011;9724;51.194;6.856;2024-03-07T03:56:31;64.17;;;29.30;;
19183;SDS011;9724;51.194;6.856;2024-03-07T03:58:57;65.90;;;28.77;;
19183;SDS011;9724;51.194;6.856;2024-03-07T04:01:24;56.80;;;26.60;;
19183;SDS011;9724;51.194;6.856;2024-03-07T04:03:51;56.83;;;26.97;;
19183;SDS011;9724;51.194;6.856;2024-03-07T04:06:18;58.53;;;28.40;;
19183;SDS011;9724;51.194;6.856;2024-03-07T04:08:44;57.50;;;26.37;;
19183;SDS011;9724;51.194;6.856;2024-03-07T04:11:11;51.13;;;24.63;;
19183;SDS011;9724;51.194;6.856;2024-03-07T04:13:38;57.50;;;25.47;;
19183;SDS011;9724;51.194;6.856;2024-03-07T04:16:04;55.93;;;25.83;;
19183;SDS011;9724;51.194;6.856;2024-03-07T04:18:31;54.57;;;24.87;;
19183;SDS011;9724;51.194;6.856;2024-03-07T04:20:59;54.80;;;24.77;;
19183;SDS011;9724;51.194;6.856;2024-03-07T04:23:25;56.03;;;25.77;;
19183;SDS011;9724;51.194;6.856;2024-03-07T04:25:52;65.20;;;26.93;;
19183;SDS011;9724;51.194;6.856;2024-03-07T04:28:18;64.07;;;26.97;;
19183;SDS011;9724;51.194;6.856;2024-03-07T04:30:45;57.53;;;25.53;;
19183;SDS011;9724;51.194;6.856;2024-03-07T04:33:11;64.00;;;28.03;;
19183;SDS011;9724;51.194;6.856;2024-03-07T04:35:38;58.80;;;27.40;;
19183;SDS011;9724;51.194;6.856;2024-03-07T04:38:08;64.53;;;29.17;;
19183;SDS011;9724;51.194;6.856;2024-03-07T04:40:41;64.93;;;28.47;;
19183;SDS011;9724;51.194;6.856;2024-03-07T04:43:07;63.43;;;26.90;;
19183;SDS011;9724;51.194;6.856;2024-03-07T04:45:33;56.43;;;25.73;;
19183;SDS011;9724;51.194;6.856;2024-03-07T04:48:00;59.40;;;27.57;;
19183;SDS011;9724;51.194;6.856;2024-03-07T04:50:27;64.10;;;28.60;;
19183;SDS011;9724;51.194;6.856;2024-03-07T04:52:53;62.10;;;27.47;;
19183;SDS011;9724;51.194;6.856;2024-03-07T04:55:20;63.57;;;27.97;;
19183;SDS011;9724;51.194;6.856;2024-03-07T04:57:47;66.23;;;28.87;;
19183;SDS011;9724;51.194;6.856;2024-03-07T05:00:13;64.10;;;29.50;;
19183;SDS011;9724;51.194;6.856;2024-03-07T05:02:43;57.73;;;26.60;;
19183;SDS011;9724;51.194;6.856;2024-03-07T05:05:10;58.20;;;26.67;;
19183;SDS011;9724;51.194;6.856;2024-03-07T05:07:38;60.90;;;26.80;;
19183;SDS011;9724;51.194;6.856;2024-03-07T05:10:06;58.73;;;26.90;;
19183;SDS011;9724;51.194;6.856;2024-03-07T05:12:34;55.57;;;25.40;;
19183;SDS011;9724;51.194;6.856;2024-03-07T05:15:00;58.03;;;26.10;;
19183;SDS011;9724;51.194;6.856;2024-03-07T05:17:29;61.87;;;27.17;;
19183;SDS011;9724;51.194;6.856;2024-03-07T05:19:58;54.10;;;25.70;;
19183;SDS011;9724;51.194;6.856;2024-03-07T05:22:25;41.43;;;17.13;;
19183;SDS011;9724;51.194;6.856;2024-03-07T05:24:52;81.77;;;28.93;;
19183;SDS011;9724;51.194;6.856;2024-03-07T05:27:19;113.87;;;35.87;;
19183;SDS011;9724;51.194;6.856;2024-03-07T05:29:47;78.80;;;34.40;;
19183;SDS011;9724;51.194;6.856;2024-03-07T05:32:19;52.27;;;27.10;;
19183;SDS011;9724;51.194;6.856;2024-03-07T05:34:47;46.10;;;24.00;;
19183;SDS011;9724;51.194;6.856;2024-03-07T05:37:13;43.07;;;22.50;;
19183;SDS011;9724;51.194;6.856;2024-03-07T05:39:39;44.40;;;23.03;;
19183;SDS011;9724;51.194;6.856;2024-03-07T05:42:06;41.37;;;20.53;;
19183;SDS011;9724;51.194;6.856;2024-03-07T05:44:36;46.70;;;22.23;;
19183;SDS011;9724;51.194;6.856;2024-03-07T05:47:03;47.23;;;22.47;;
19183;SDS011;9724;51.194;6.856;2024-03-07T05:49:30;44.50;;;21.53;;
19183;SDS011;9724;51.194;6.856;2024-03-07T05:51:56;43.30;;;22.30;;
19183;SDS011;9724;51.194;6.856;2024-03-07T05:54:23;49.73;;;23.47;;
19183;SDS011;9724;51.194;6.856;2024-03-07T05:56:50;56.13;;;22.97;;
19183;SDS011;9724;51.194;6.856;2024-03-07T05:59:17;43.30;;;22.00;;
19183;SDS011;9724;51.194;6.856;2024-03-07T06:01:43;46.73;;;22.60;;
19183;SDS011;9724;51.194;6.856;2024-03-07T06:04:10;45.33;;;21.83;;
19183;SDS011;9724;51.194;6.856;2024-03-07T06:06:38;46.97;;;21.93;;
19183;SDS011;9724;51.194;6.856;2024-03-07T06:09:05;48.10;;;22.37;;
19183;SDS011;9724;51.194;6.856;2024-03-07T06:11:34;49.03;;;22.17;;
19183;SDS011;9724;51.194;6.856;2024-03-07T06:14:01;43.20;;;21.47;;
19183;SDS011;9724;51.194;6.856;2024-03-07T06:16:29;49.53;;;23.17;;
19183;SDS011;9724;51.194;6.856;2024-03-07T06:18:58;49.10;;;22.37;;
19183;SDS011;9724;51.194;6.856;2024-03-07T06:21:26;45.23;;;22.00;;
19183;SDS011;9724;51.194;6.856;2024-03-07T06:23:52;47.27;;;22.60;;
19183;SDS011;9724;51.194;6.856;2024-03-07T06:26:25;49.10;;;23.90;;
19183;SDS011;9724;51.194;6.856;2024-03-07T06:29:02;52.10;;;24.57;;
19183;SDS011;9724;51.194;6.856;2024-03-07T06:31:30;55.40;;;23.60;;
19183;SDS011;9724;51.194;6.856;2024-03-07T06:33:57;55.00;;;26.27;;
19183;SDS011;9724;51.194;6.856;2024-03-07T06:36:24;59.13;;;25.63;;
19183;SDS011;9724;51.194;6.856;2024-03-07T06:38:51;57.87;;;25.70;;
19183;SDS011;9724;51.194;6.856;2024-03-07T06:41:18;52.70;;;25.63;;
19183;SDS011;9724;51.194;6.856;2024-03-07T06:43:44;46.53;;;23.87;;
19183;SDS011;9724;51.194;6.856;2024-03-07T06:46:10;50.27;;;23.87;;
19183;SDS011;9724;51.194;6.856;2024-03-07T06:48:38;53.77;;;23.67;;
19183;SDS011;9724;51.194;6.856;2024-03-07T06:51:05;46.27;;;21.70;;
19183;SDS011;9724;51.194;6.856;2024-03-07T06:53:32;45.70;;;22.50;;
19183;SDS011;9724;51.194;6.856;2024-03-07T06:55:59;51.50;;;23.67;;
19183;SDS011;9724;51.194;6.856;2024-03-07T06:58:25;48.00;;;23.17;;
19183;SDS011;9724;51.194;6.856;2024-03-07T07:00:54;42.30;;;22.87;;
19183;SDS011;9724;51.194;6.856;2024-03-07T07:03:21;44.63;;;21.57;;
19183;SDS011;9724;51.194;6.856;2024-03-07T07:05:48;49.63;;;22.57;;
19183;SDS011;9724;51.194;6.856;2024-03-07T07:08:14;43.00;;;21.27;;
19183;SDS011;9724;51.194;6.856;2024-03-07T07:10:41;43.30;;;21.97;;
19183;SDS011;9724;51.194;6.856;2024-03-07T07:13:08;44.67;;;22.10;;
19183;SDS011;9724;51.194;6.856;2024-03-07T07:15:36;43.87;;;21.93;;
19183;SDS011;9724;51.194;6.856;2024-03-07T07:18:02;40.77;;;20.87;;
19183;SDS011;9724;51.194;6.856;2024-03-07T07:20:30;42.40;;;22.40;;
19183;SDS011;9724;51.194;6.856;2024-03-07T07:22:56;44.27;;;21.27;;
19183;SDS011;9724;51.194;6.856;2024-03-07T07:25:25;39.63;;;21.33;;
19183;SDS011;9724;51.194;6.856;2024-03-07T07:27:52;41.90;;;21.37;;
19183;SDS011;9724;51.194;6.856;2024-03-07T07:30:20;40.30;;;20.57;;
19183;SDS011;9724;51.194;6.856;2024-03-07T07:32:48;40.97;;;21.07;;
19183;SDS011;9724;51.194;6.856;2024-03-07T07:35:15;41.47;;;21.23;;
19183;SDS011;9724;51.194;6.856;2024-03-07T07:37:42;39.80;;;21.67;;
19183;SDS011;9724;51.194;6.856;2024-03-07T07:40:11;41.97;;;21.00;;
19183;SDS011;9724;51.194;6.856;2024-03-07T07:42:40;42.33;;;19.73;;
19183;SDS011;9724;51.194;6.856;2024-03-07T07:45:07;40.37;;;20.70;;
19183;SDS011;9724;51.194;6.856;2024-03-07T07:47:38;39.27;;;20.57;;
19183;SDS011;9724;51.194;6.856;2024-03-07T07:50:07;39.40;;;20.60;;
19183;SDS011;9724;51.194;6.856;2024-03-07T07:52:41;38.50;;;20.10;;
19183;SDS011;9724;51.194;6.856;2024-03-07T07:55:08;38.87;;;20.20;;
19183;SDS011;9724;51.194;6.856;2024-03-07T07:57:40;37.80;;;17.90;;
19183;SDS011;9724;51.194;6.856;2024-03-07T08:00:09;32.80;;;18.07;;
19183;SDS011;9724;51.194;6.856;2024-03-07T08:02:37;37.10;;;19.10;;
19183;SDS011;9724;51.194;6.856;2024-03-07T08:05:04;34.40;;;18.90;;
19183;SDS011;9724;51.194;6.856;2024-03-07T08:07:34;34.07;;;17.93;;
19183;SDS011;9724;51.194;6.856;2024-03-07T08:10:01;36.60;;;17.73;;
19183;SDS011;9724;51.194;6.856;2024-03-07T08:12:28;31.67;;;17.17;;
19183;SDS011;9724;51.194;6.856;2024-03-07T08:14:54;35.60;;;18.37;;
19183;SDS011;9724;51.194;6.856;2024-03-07T08:17:20;34.43;;;18.57;;
19183;SDS011;9724;51.194;6.856;2024-03-07T08:19:48;33.37;;;17.80;;
19183;SDS011;9724;51.194;6.856;2024-03-07T08:22:14;36.47;;;17.83;;
19183;SDS011;9724;51.194;6.856;2024-03-07T08:24:41;37.33;;;17.63;;
19183;SDS011;9724;51.194;6.856;2024-03-07T08:27:07;32.87;;;17.60;;
19183;SDS011;9724;51.194;6.856;2024-03-07T08:29:36;29.83;;;15.87;;
19183;SDS011;9724;51.194;6.856;2024-03-07T08:32:03;32.80;;;17.10;;
19183;SDS011;9724;51.194;6.856;2024-03-07T08:34:30;32.60;;;16.53;;
19183;SDS011;9724;51.194;6.856;2024-03-07T08:36:57;31.60;;;15.73;;
19183;SDS011;9724;51.194;6.856;2024-03-07T08:39:23;27.53;;;14.80;;
19183;SDS011;9724;51.194;6.856;2024-03-07T08:41:50;28.67;;;14.77;;
19183;SDS011;9724;51.194;6.856;2024-03-07T08:44:16;29.17;;;14.83;;
19183;SDS011;9724;51.194;6.856;2024-03-07T08:46:43;26.10;;;13.00;;
19183;SDS011;9724;51.194;6.856;2024-03-07T08:49:09;24.20;;;13.50;;
19183;SDS011;9724;51.194;6.856;2024-03-07T08:51:36;26.93;;;14.53;;
19183;SDS011;9724;51.194;6.856;2024-03-07T08:54:03;28.67;;;13.67;;
19183;SDS011;9724;51.194;6.856;2024-03-07T08:56:30;28.83;;;13.57;;
19183;SDS011;9724;51.194;6.856;2024-03-07T08:58:57;28.67;;;13.97;;
19183;SDS011;9724;51.194;6.856;2024-03-07T09:01:23;23.13;;;12.63;;
19183;SDS011;9724;51.194;6.856;2024-03-07T09:03:49;28.77;;;14.17;;
19183;SDS011;9724;51.194;6.856;2024-03-07T09:06:16;27.63;;;14.30;;
19183;SDS011;9724;51.194;6.856;2024-03-07T09:08:44;27.03;;;13.63;;
19183;SDS011;9724;51.194;6.856;2024-03-07T09:11:11;26.20;;;13.60;;
19183;SDS011;9724;51.194;6.856;2024-03-07T09:13:38;27.07;;;15.00;;
19183;SDS011;9724;51.194;6.856;2024-03-07T09:16:05;28.87;;;13.53;;
19183;SDS011;9724;51.194;6.856;2024-03-07T09:18:32;30.03;;;13.97;;
19183;SDS011;9724;51.194;6.856;2024-03-07T09:20:59;26.07;;;13.77;;
19183;SDS011;9724;51.194;6.856;2024-03-07T09:23:26;29.00;;;13.97;;
19183;SDS011;9724;51.194;6.856;2024-03-07T09:25:53;25.07;;;13.90;;
19183;SDS011;9724;51.194;6.856;2024-03-07T09:28:20;27.60;;;12.33;;
19183;SDS011;9724;51.194;6.856;2024-03-07T09:30:47;25.20;;;12.07;;
19183;SDS011;9724;51.194;6.856;2024-03-07T09:33:14;24.97;;;13.83;;
19183;SDS011;9724;51.194;6.856;2024-03-07T09:35:45;23.60;;;12.60;;
19183;SDS011;9724;51.194;6.856;2024-03-07T09:38:11;24.83;;;12.03;;
19183;SDS011;9724;51.194;6.856;2024-03-07T09:40:37;23.23;;;12.37;;
19183;SDS011;9724;51.194;6.856;2024-03-07T09:43:04;23.60;;;13.67;;
19183;SDS011;9724;51.194;6.856;2024-03-07T09:45:33;26.20;;;13.47;;
19183;SDS011;9724;51.194;6.856;2024-03-07T09:48:00;24.97;;;12.03;;
19183;SDS011;9724;51.194;6.856;2024-03-07T09:50:29;26.33;;;12.77;;
19183;SDS011;9724;51.194;6.856;2024-03-07T09:52:57;24.40;;;13.27;;
19183;SDS011;9724;51.194;6.856;2024-03-07T09:55:25;26.67;;;13.10;;
19183;SDS011;9724;51.194;6.856;2024-03-07T09:57:53;24.03;;;11.40;;
19183;SDS011;9724;51.194;6.856;2024-03-07T10:00:20;23.30;;;12.33;;
19183;SDS011;9724;51.194;6.856;2024-03-07T10:02:50;24.87;;;12.63;;
19183;SDS011;9724;51.194;6.856;2024-03-07T10:05:20;21.07;;;11.73;;
19183;SDS011;9724;51.194;6.856;2024-03-07T10:07:48;25.90;;;12.80;;
19183;SDS011;9724;51.194;6.856;2024-03-07T10:10:16;25.70;;;12.77;;
19183;SDS011;9724;51.194;6.856;2024-03-07T10:12:43;25.13;;;13.00;;
19183;SDS011;9724;51.194;6.856;2024-03-07T10:15:10;25.43;;;12.40;;
19183;SDS011;9724;51.194;6.856;2024-03-07T10:17:38;26.57;;;13.03;;
19183;SDS011;9724;51.194;6.856;2024-03-07T10:20:07;22.37;;;12.53;;
19183;SDS011;9724;51.194;6.856;2024-03-07T10:22:35;23.47;;;12.43;;
19183;SDS011;9724;51.194;6.856;2024-03-07T10:25:02;22.93;;;11.43;;
19183;SDS011;9724;51.194;6.856;2024-03-07T10:27:29;24.80;;;13.57;;
19183;SDS011;9724;51.194;6.856;2024-03-07T10:29:55;24.23;;;12.63;;
19183;SDS011;9724;51.194;6.856;2024-03-07T10:32:22;25.80;;;12.93;;
19183;SDS011;9724;51.194;6.856;2024-03-07T10:34:50;26.40;;;12.53;;
19183;SDS011;9724;51.194;6.856;2024-03-07T10:37:17;28.43;;;12.80;;
19183;SDS011;9724;51.194;6.856;2024-03-07T10:39:46;30.47;;;13.50;;
19183;SDS011;9724;51.194;6.856;2024-03-07T10:42:15;26.17;;;13.20;;
19183;SDS011;9724;51.194;6.856;2024-03-07T10:44:43;24.60;;;13.03;;
19183;SDS011;9724;51.194;6.856;2024-03-07T10:47:11;24.43;;;13.00;;
19183;SDS011;9724;51.194;6.856;2024-03-07T10:49:59;23.83;;;13.17;;
19183;SDS011;9724;51.194;6.856;2024-03-07T10:52:33;27.47;;;14.50;;
19183;SDS011;9724;51.194;6.856;2024-03-07T10:55:08;27.50;;;14.03;;
19183;SDS011;9724;51.194;6.856;2024-03-07T10:57:41;32.10;;;13.83;;
19183;SDS011;9724;51.194;6.856;2024-03-07T11:00:16;23.53;;;12.80;;
19183;SDS011;9724;51.194;6.856;2024-03-07T11:02:56;26.33;;;12.33;;
19183;SDS011;9724;51.194;6.856;2024-03-07T11:05:24;23.73;;;13.00;;
19183;SDS011;9724;51.194;6.856;2024-03-07T11:07:56;27.73;;;14.73;;
19183;SDS011;9724;51.194;6.856;2024-03-07T11:10:23;24.97;;;13.00;;
19183;SDS011;9724;51.194;6.856;2024-03-07T11:12:50;24.73;;;12.67;;
19183;SDS011;9724;51.194;6.856;2024-03-07T11:15:17;27.67;;;12.37;;
19183;SDS011;9724;51.194;6.856;2024-03-07T11:17:45;25.07;;;12.47;;
19183;SDS011;9724;51.194;6.856;2024-03-07T11:20:20;25.50;;;13.33;;
19183;SDS011;9724;51.194;6.856;2024-03-07T11:22:47;22.37;;;12.10;;
19183;SDS011;9724;51.194;6.856;2024-03-07T11:25:17;28.10;;;13.57;;
19183;SDS011;9724;51.194;6.856;2024-03-07T11:27:54;21.97;;;11.07;;
19183;SDS011;9724;51.194;6.856;2024-03-07T11:30:21;21.50;;;11.33;;
19183;SDS011;9724;51.194;6.856;2024-03-07T11:32:48;19.77;;;10.87;;
19183;SDS011;9724;51.194;6.856;2024-03-07T11:35:18;19.57;;;11.83;;
19183;SDS011;9724;51.194;6.856;2024-03-07T11:37:56;23.47;;;10.70;;
19183;SDS011;9724;51.194;6.856;2024-03-07T11:43:14;24.17;;;11.33;;
19183;SDS011;9724;51.194;6.856;2024-03-07T11:45:40;21.23;;;10.97;;
19183;SDS011;9724;51.194;6.856;2024-03-07T11:48:11;21.10;;;10.93;;
19183;SDS011;9724;51.194;6.856;2024-03-07T11:50:37;19.07;;;11.60;;
19183;SDS011;9724;51.194;6.856;2024-03-07T11:53:05;17.27;;;10.03;;
19183;SDS011;9724;51.194;6.856;2024-03-07T11:55:32;22.53;;;11.50;;
19183;SDS011;9724;51.194;6.856;2024-03-07T11:58:07;18.60;;;10.30;;
19183;SDS011;9724;51.194;6.856;2024-03-07T12:00:38;23.13;;;11.73;;
19183;SDS011;9724;51.194;6.856;2024-03-07T12:03:08;34.40;;;12.67;;
19183;SDS011;9724;51.194;6.856;2024-03-07T12:05:38;21.10;;;10.50;;
19183;SDS011;9724;51.194;6.856;2024-03-07T12:08:05;21.93;;;11.90;;
19183;SDS011;9724;51.194;6.856;2024-03-07T12:10:32;17.33;;;10.47;;
19183;SDS011;9724;51.194;6.856;2024-03-07T12:12:59;17.80;;;9.70;;
19183;SDS011;9724;51.194;6.856;2024-03-07T12:15:27;17.63;;;10.03;;
19183;SDS011;9724;51.194;6.856;2024-03-07T12:17:53;16.10;;;9.63;;
19183;SDS011;9724;51.194;6.856;2024-03-07T12:20:21;16.50;;;10.00;;
19183;SDS011;9724;51.194;6.856;2024-03-07T12:22:50;16.20;;;9.63;;
19183;SDS011;9724;51.194;6.856;2024-03-07T12:25:18;18.20;;;9.83;;
19183;SDS011;9724;51.194;6.856;2024-03-07T12:27:47;20.77;;;9.57;;
19183;SDS011;9724;51.194;6.856;2024-03-07T12:30:16;15.90;;;9.33;;
19183;SDS011;9724;51.194;6.856;2024-03-07T12:32:49;19.03;;;10.07;;
19183;SDS011;9724;51.194;6.856;2024-03-07T12:35:15;17.80;;;9.90;;
19183;SDS011;9724;51.194;6.856;2024-03-07T12:37:43;16.00;;;9.67;;
19183;SDS011;9724;51.194;6.856;2024-03-07T12:40:11;19.43;;;10.23;;
19183;SDS011;9724;51.194;6.856;2024-03-07T12:42:45;15.90;;;9.77;;
19183;SDS011;9724;51.194;6.856;2024-03-07T12:45:12;18.07;;;9.27;;
19183;SDS011;9724;51.194;6.856;2024-03-07T12:47:43;16.20;;;9.33;;
19183;SDS011;9724;51.194;6.856;2024-03-07T12:50:10;17.40;;;9.73;;
19183;SDS011;9724;51.194;6.856;2024-03-07T12:52:37;17.53;;;9.50;;
19183;SDS011;9724;51.194;6.856;2024-03-07T12:55:04;16.00;;;8.90;;
19183;SDS011;9724;51.194;6.856;2024-03-07T12:57:32;14.00;;;7.53;;
19183;SDS011;9724;51.194;6.856;2024-03-07T12:59:58;12.13;;;7.00;;
19183;SDS011;9724;51.194;6.856;2024-03-07T13:02:24;10.33;;;6.97;;
19183;SDS011;9724;51.194;6.856;2024-03-07T13:04:55;10.80;;;6.77;;
19183;SDS011;9724;51.194;6.856;2024-03-07T13:07:22;9.57;;;6.67;;
19183;SDS011;9724;51.194;6.856;2024-03-07T13:09:49;12.07;;;6.77;;
19183;SDS011;9724;51.194;6.856;2024-03-07T13:12:15;12.40;;;7.20;;
19183;SDS011;9724;51.194;6.856;2024-03-07T13:14:41;12.93;;;7.07;;
19183;SDS011;9724;51.194;6.856;2024-03-07T13:17:09;13.77;;;7.07;;
19183;SDS011;9724;51.194;6.856;2024-03-07T13:19:39;9.97;;;7.00;;
19183;SDS011;9724;51.194;6.856;2024-03-07T13:22:09;11.50;;;6.83;;
19183;SDS011;9724;51.194;6.856;2024-03-07T13:24:38;10.57;;;7.30;;
19183;SDS011;9724;51.194;6.856;2024-03-07T13:27:05;13.83;;;7.60;;
19183;SDS011;9724;51.194;6.856;2024-03-07T13:29:36;13.70;;;7.70;;
19183;SDS011;9724;51.194;6.856;2024-03-07T13:32:03;14.00;;;7.03;;
19183;SDS011;9724;51.194;6.856;2024-03-07T13:34:30;15.43;;;8.27;;
19183;SDS011;9724;51.194;6.856;2024-03-07T13:36:56;16.77;;;8.60;;
19183;SDS011;9724;51.194;6.856;2024-03-07T13:39:26;13.67;;;8.10;;
19183;SDS011;9724;51.194;6.856;2024-03-07T13:41:53;16.37;;;9.00;;
19183;SDS011;9724;51.194;6.856;2024-03-07T13:44:20;18.03;;;9.40;;
19183;SDS011;9724;51.194;6.856;2024-03-07T13:46:48;16.43;;;9.40;;
19183;SDS011;9724;51.194;6.856;2024-03-07T13:49:15;13.23;;;8.43;;
19183;SDS011;9724;51.194;6.856;2024-03-07T13:51:43;20.33;;;8.77;;
19183;SDS011;9724;51.194;6.856;2024-03-07T13:54:16;14.53;;;8.70;;
19183;SDS011;9724;51.194;6.856;2024-03-07T13:56:58;14.50;;;8.97;;
19183;SDS011;9724;51.194;6.856;2024-03-07T13:59:54;14.83;;;8.60;;
19183;SDS011;9724;51.194;6.856;2024-03-07T14:14:47;14.13;;;8.33;;
19183;SDS011;9724;51.194;6.856;2024-03-07T14:20:41;11.50;;;7.63;;
19183;SDS011;9724;51.194;6.856;2024-03-07T14:23:23;15.40;;;7.90;;
19183;SDS011;9724;51.194;6.856;2024-03-07T14:26:12;11.07;;;6.90;;
19183;SDS011;9724;51.194;6.856;2024-03-07T14:29:02;12.43;;;6.93;;
19183;SDS011;9724;51.194;6.856;2024-03-07T14:31:38;15.43;;;7.40;;
19183;SDS011;9724;51.194;6.856;2024-03-07T14:34:06;11.23;;;7.83;;
19183;SDS011;9724;51.194;6.856;2024-03-07T14:36:38;9.27;;;5.80;;
19183;SDS011;9724;51.194;6.856;2024-03-07T14:39:10;7.87;;;5.70;;
19183;SDS011;9724;51.194;6.856;2024-03-07T14:41:49;8.27;;;5.43;;
19183;SDS011;9724;51.194;6.856;2024-03-07T14:44:17;9.77;;;6.43;;
19183;SDS011;9724;51.194;6.856;2024-03-07T14:46:46;8.70;;;5.77;;
19183;SDS011;9724;51.194;6.856;2024-03-07T14:49:15;11.17;;;6.43;;
19183;SDS011;9724;51.194;6.856;2024-03-07T14:51:43;10.00;;;6.30;;
19183;SDS011;9724;51.194;6.856;2024-03-07T14:54:24;10.50;;;6.70;;
19183;SDS011;9724;51.194;6.856;2024-03-07T14:56:51;11.07;;;6.60;;
19183;SDS011;9724;51.194;6.856;2024-03-07T14:59:18;12.23;;;6.53;;